Impacts TAF Board
For situational awareness. Not to be used for flight planning purposes.
IDs:

KCLL - College Station/East, TX, US

Issued at 1721 UTC 21 May 2022
Updated at 2238 UTC 21 May 2022
Potential Impact None Slight Moderate High
Time2153Z 21/23Z 22/00Z 22/01Z 22/02Z 22/03Z 22/04Z 22/05Z 22/06Z 22/07Z 22/08Z 22/09Z 22/10Z 22/11Z>>
Type OBS PRVL PRVL PRVL PRVL PRVL
  [TEMP]  
PRVL
  [TEMP]  
PRVL
  [TEMP]  
PRVL
  [TEMP]  
PRVL PRVL PRVL PRVL
  [TEMP]  
PRVL
  [TEMP]  
VIS 10 >6 >6 >6 >6 >6
  [2]  
>6
  [2]  
>6
  [2]  
>6
  [2]  
6 6 6 6
  [6]  
6
  [6]  
CIG -- -- -- -- 40 40
  [18]  
40
  [18]  
40
  [18]  
40
  [18]  
25 25 15 15
  [7]  
15
  [7]  
Cover SCT SCT SCT SCT BKN BKN
  [BKN]  
BKN
  [BKN]  
BKN
  [BKN]  
BKN
  [BKN]  
BKN BKN BKN BKN
  [BKN]  
BKN
  [BKN]  
FltCat VFR VFR VFR VFR VFR VFR
  [IFR]  
VFR
  [IFR]  
VFR
  [IFR]  
VFR
  [IFR]  
MVFR MVFR MVFR MVFR
  [IFR]  
MVFR
  [IFR]  
WX -- -- -- -- VCTS VCTS
  [TSRA]  
VCTS
  [TSRA]  
VCTS
  [TSRA]  
VCTS
  [TSRA]  
-RA BR -RA BR BR BR
  [--]  
BR
  [--]  
WDir 120 170 170 170 110 110
[VRB]
110
[VRB]
110
[VRB]
110
[VRB]
10 10 10 10
[10]
10
[10]
WSpd 11 14 14 14 10 10
  [25]  
10
  [25]  
10
  [25]  
10
  [25]  
14 14 16 16
  [16]  
16
  [16]  
WGst -- 24 24 24 -- --
  [--]  
--
  [--]  
--
  [--]  
--
  [--]  
-- -- -- --
  [--]  
--
  [--]  
WSHgt -- -- -- -- -- --
[--]
--
[--]
--
[--]
--
[--]
-- -- -- --
[--]
--
[--]
WSDir -- -- -- -- -- --
[--]
--
[--]
--
[--]
--
[--]
-- -- -- --
[--]
--
[--]
WSSpd -- -- -- -- -- --
[--]
--
[--]
--
[--]
--
[--]
-- -- -- --
[--]
--
[--]
Raw TAF
KCLL 211721Z 2118/2218 17014G24KT P6SM SCT040
  FM220200 11010KT P6SM VCTS SCT025 BKN040CB
  TEMPO 2203/2207 VRB25KT 2SM TSRA BKN018CB
  FM220700 01014KT 6SM -RA BR SCT015 BKN025
  FM220900 01016KT 6SM BR SCT007 BKN015
  TEMPO 2210/2214 BKN007
  FM221600 01011KT P6SM SCT015 BKN025


Raw METAR
KCLL 212153Z 12011KT 10SM SCT055 36/23 A2983 RMK AO2 SLP096 T03560228
KCLL 212053Z 18012G23KT 10SM SCT060 36/22 A2983 RMK AO2 SLP094 T03610217 56013
KCLL 211953Z 15013G22KT 10SM FEW055 36/22 A2984 RMK AO2 PK WND 17026/1923 SLP099 T03560222

METAR Board
Radar Display
Forecast Discussion
For situational awareness. Not to be used for flight planning purposes.